Terminal Aerodrome Forecast
Issued by NWS

Home | Current Version | Previous Version | Text Only | Print | Product List | Glossary On
Versions: 1 2 3 4 5 6 7 8 9 10 11 12 13 14
218
FTPA31 PHFO 061729
TAFHKO
TAF
PHKO 061729Z 0618/0718 11006KT P6SM FEW060
     FM062000 27011KT P6SM FEW030 BKN060
     FM070400 10006KT P6SM SCT030 BKN050=

USA.gov is the U.S. government's official web portal to all federal, state and local government web resources and services.